Queen Victoria — ZCEF3 — position and weather

sailwx.info

Track history (hours):
 
Tides and Currents Weather Stations Pressure Air Temp Water Temp Dewpoint Dewpoint Depression Visibility Wind Speed Wind Dir Waves Ship Positions

Queen Victoria

Last reported at 2019-Sep-19 17:28 UTC. Time now 2019-Sep-19 18:48 UTC.
Position N 49°01' W 004°31'.

Length 294 m; draft 8 m.

Type: Ship. MMSI: 310624000.

Date/timePositionNaut miles runAvg speedWind from/ knotsBaromVisibWave heightAir tempDewpointWater temp
2019-Sep-19 17:28N 49°01' W 004°31'1021.1
2019-Sep-19 17:00N 48°55' W 004°42'1021.0
2019-Sep-19 16:30N 48°49' W 004°54'1121.0
2019-Sep-19 16:00N 48°42' W 005°07'1021.0
2019-Sep-19 15:30N 48°35' W 005°18'1020.3
2019-Sep-19 15:00N 48°27' W 005°28'1019.6
2019-Sep-19 14:30N 48°18' W 005°35'1019.9
2019-Sep-19 14:00N 48°10' W 005°43'1020.0
2019-Sep-19 13:30N 48°01' W 005°50'1320.0
2019-Sep-19 12:52N 47°50' W 005°59'719.7
2019-Sep-19 12:30N 47°44' W 006°05'3819.5
2019-Sep-19 10:33N 47°11' W 006°33'48618.3
2019-Sep-18 07:56N 39°27' W 009°51'919.3
2019-Sep-18 07:27N 39°18' W 009°51'919.1
2019-Sep-18 07:00N 39°09' W 009°51'918.9
2019-Sep-18 06:30N 38°60' W 009°51'918.8
2019-Sep-18 06:00N 38°50' W 009°51'1019.1
2019-Sep-18 05:30N 38°41' W 009°50'1019.5
2019-Sep-18 05:00N 38°31' W 009°48'1019.3
2019-Sep-18 04:30N 38°22' W 009°45'1019.4
2019-Sep-18 04:00N 38°12' W 009°42'1019.7
2019-Sep-18 03:30N 38°03' W 009°39'1019.8
2019-Sep-18 03:00N 37°53' W 009°36'1019.7
2019-Sep-18 02:30N 37°44' W 009°33'1019.3
2019-Sep-18 02:00N 37°34' W 009°30'1019.1
2019-Sep-18 01:30N 37°25' W 009°28'4617.9
2019-Sep-17 22:54N 36°43' W 009°02'718.8
2019-Sep-17 22:30N 36°41' W 008°53'1018.8
2019-Sep-17 22:00N 36°38' W 008°42'1518.9
2019-Sep-17 21:12N 36°34' W 008°24'2718.5
2019-Sep-17 19:46N 36°26' W 007°52'618.3
2019-Sep-17 19:26N 36°24' W 007°45'2218.5
2019-Sep-17 18:14N 36°16' W 007°19'418.6
2019-Sep-17 18:00N 36°15' W 007°14'5958.0
2019-Sep-17 17:00N 35°54' W 006°06'44510.1 280 / 81018.910.8 27.224.024.0
2019-Sep-15 21:00N 40°18' E 001°30'4218.9 090 / 201022.510.8 24.422.325.0
2019-Sep-15 18:47N 40°54' E 001°58'414.8
2019-Sep-15 18:30N 40°58' E 002°00'714.3
2019-Sep-15 18:00N 41°04' E 002°05'714.2
2019-Sep-15 17:31N 41°10' E 002°09'713.7
2019-Sep-15 17:01N 41°17' E 002°11'4 7.7
2019-Sep-15 16:30N 41°21' E 002°10'0 0.8
2019-Sep-15 15:58N 41°21' E 002°10'0 0.0
2019-Sep-15 15:28N 41°21' E 002°10'0 0.0
2019-Sep-15 14:58N 41°21' E 002°10'0 0.0
2019-Sep-15 14:28N 41°21' E 002°10'0 0.0
2019-Sep-15 13:58N 41°21' E 002°10'0 0.0
2019-Sep-15 13:28N 41°21' E 002°10'0 0.0
2019-Sep-15 12:58N 41°21' E 002°10'0 0.0
2019-Sep-15 12:28N 41°21' E 002°10'0 0.0
2019-Sep-15 11:58N 41°21' E 002°10'0 0.0
2019-Sep-15 11:28N 41°21' E 002°10'0 0.0
2019-Sep-15 10:58N 41°21' E 002°10'0 0.0
2019-Sep-15 10:28N 41°21' E 002°10'0 0.0
2019-Sep-15 09:58N 41°21' E 002°10'0 0.0
2019-Sep-15 09:28N 41°21' E 002°10'0 0.0
2019-Sep-15 08:58N 41°21' E 002°10'0 0.0
2019-Sep-15 08:28N 41°21' E 002°10'0 0.0
2019-Sep-15 07:58N 41°21' E 002°10'0 0.0
2019-Sep-15 07:28N 41°21' E 002°10'0 0.0
2019-Sep-15 06:55N 41°21' E 002°10'0 0.0
2019-Sep-15 06:30N 41°21' E 002°10'2 3.1
2019-Sep-15 06:00N 41°20' E 002°10'5 9.1
2019-Sep-15 05:31N 41°15' E 002°12'713.1
2019-Sep-15 05:01N 41°16' E 002°21'714.9
2019-Sep-15 04:30N 41°19' E 002°30'715.0
2019-Sep-15 04:00N 41°22' E 002°39'714.9
2019-Sep-15 03:31N 41°26' E 002°48'1019.2
2019-Sep-15 03:00N 41°30' E 002°59'1019.1
2019-Sep-15 02:30N 41°35' E 003°11'16319.0
2019-Sep-14 17:54N 42°51' E 006°25'919.4
2019-Sep-14 17:25N 42°57' E 006°35'919.5
2019-Sep-14 16:57N 43°05' E 006°42'919.4
2019-Sep-14 16:30N 43°12' E 006°48'1019.2
2019-Sep-14 16:00N 43°21' E 006°54'918.1
2019-Sep-14 15:30N 43°29' E 006°60'3 6.5
2019-Sep-14 15:00N 43°32' E 007°01'0 0.2
2019-Sep-14 14:29N 43°32' E 007°01'0 0.0
2019-Sep-14 13:59N 43°32' E 007°01'0 0.0
2019-Sep-14 13:29N 43°32' E 007°01'0 0.0
2019-Sep-14 12:59N 43°32' E 007°01'0 0.0
2019-Sep-14 12:29N 43°32' E 007°00'0 0.0
2019-Sep-14 11:59N 43°32' E 007°00'0 0.0
2019-Sep-14 11:29N 43°32' E 007°01'0 0.0
2019-Sep-14 10:59N 43°32' E 007°01'0 0.0
2019-Sep-14 10:26N 43°32' E 007°00'0 0.0
2019-Sep-14 09:59N 43°32' E 007°00'0 0.0
2019-Sep-14 09:29N 43°32' E 007°01'0 0.1
2019-Sep-14 08:59N 43°32' E 007°01'0 0.0
2019-Sep-14 08:29N 43°32' E 007°01'0 0.0
2019-Sep-14 07:59N 43°32' E 007°01'0 0.0
2019-Sep-14 07:29N 43°32' E 007°01'0 0.0
2019-Sep-14 06:59N 43°32' E 007°01'0 0.0
2019-Sep-14 06:29N 43°32' E 007°01'0 0.0
2019-Sep-14 05:59N 43°32' E 007°01'0 0.0
2019-Sep-14 05:29N 43°32' E 007°01'0 0.0
2019-Sep-14 04:59N 43°32' E 007°01'0 0.3
2019-Sep-14 04:30N 43°32' E 007°00'4 7.5
2019-Sep-14 04:00N 43°28' E 007°00'611.5
2019-Sep-14 03:30N 43°23' E 007°05'611.9
2019-Sep-14 03:00N 43°20' E 007°12'611.5
2019-Sep-14 02:30N 43°20' E 007°20'713.1
2019-Sep-14 02:00N 43°22' E 007°28'713.1
2019-Sep-14 01:30N 43°24' E 007°37'612.8
2019-Sep-14 01:00N 43°26' E 007°45'612.9
2019-Sep-14 00:30N 43°28' E 007°54'713.2
2019-Sep-14 00:00N 43°30' E 008°02'713.3
2019-Sep-13 23:30N 43°33' E 008°11'713.3
2019-Sep-13 23:00N 43°35' E 008°20'713.1
2019-Sep-13 22:30N 43°37' E 008°28'613.0
2019-Sep-13 22:00N 43°39' E 008°37'613.0
2019-Sep-13 21:30N 43°41' E 008°45'713.7
2019-Sep-13 21:00N 43°43' E 008°54'815.3
2019-Sep-13 20:30N 43°46' E 009°04'714.6
2019-Sep-13 20:00N 43°48' E 009°13'714.8
2019-Sep-13 19:30N 43°51' E 009°23'714.4
2019-Sep-13 19:00N 43°54' E 009°32'714.4
2019-Sep-13 18:30N 43°57' E 009°41'713.9
2019-Sep-13 18:00N 43°59' E 009°50'5 9.9
2019-Sep-13 17:31N 44°04' E 009°51'2 4.9
2019-Sep-13 17:01N 44°06' E 009°50'0 0.0
2019-Sep-13 16:28N 44°06' E 009°50'0 0.0
2019-Sep-13 15:58N 44°06' E 009°50'0 0.0
2019-Sep-13 15:28N 44°06' E 009°50'0 0.0
2019-Sep-13 14:58N 44°06' E 009°50'0 0.0
2019-Sep-13 14:28N 44°06' E 009°50'0 0.0
2019-Sep-13 13:58N 44°06' E 009°50'0 0.0
2019-Sep-13 13:25N 44°06' E 009°50'0 0.0
2019-Sep-13 12:58N 44°06' E 009°50'0 0.0
2019-Sep-13 12:28N 44°06' E 009°50'0 0.0
2019-Sep-13 11:58N 44°06' E 009°50'0 0.0
2019-Sep-13 11:28N 44°06' E 009°50'0 0.0
2019-Sep-13 10:58N 44°06' E 009°50'0 0.0
2019-Sep-13 10:28N 44°06' E 009°50'0 0.0
2019-Sep-13 09:58N 44°06' E 009°50'0 0.0
2019-Sep-13 09:25N 44°06' E 009°50'0 0.0
2019-Sep-13 08:58N 44°06' E 009°50'0 0.0
2019-Sep-13 08:28N 44°06' E 009°50'0 0.0
2019-Sep-13 07:58N 44°06' E 009°50'0 0.0
2019-Sep-13 07:28N 44°06' E 009°50'0 0.0
2019-Sep-13 06:58N 44°06' E 009°50'0 0.0
2019-Sep-13 06:25N 44°06' E 009°50'0 0.0
2019-Sep-13 05:58N 44°06' E 009°50'0 0.0
2019-Sep-13 05:28N 44°06' E 009°50'0 0.0
2019-Sep-13 04:58N 44°06' E 009°50'0 0.7
2019-Sep-13 04:30N 44°06' E 009°50'1 2.3
2019-Sep-13 04:00N 44°05' E 009°51'3 5.5
2019-Sep-13 03:30N 44°03' E 009°53'510.2
2019-Sep-13 03:01N 43°58' E 009°56'714.3
2019-Sep-13 02:31N 43°53' E 009°50'1514.9
2019-Sep-13 01:31N 43°43' E 009°34'714.8
2019-Sep-13 01:01N 43°38' E 009°26'715.0
2019-Sep-13 00:31N 43°33' E 009°18'714.8
2019-Sep-13 00:01N 43°28' E 009°11'714.7
2019-Sep-12 23:31N 43°24' E 009°03'714.6
2019-Sep-12 23:01N 43°19' E 008°55'714.5
2019-Sep-12 22:31N 43°14' E 008°48'714.5
2019-Sep-12 22:01N 43°09' E 008°41'714.4
2019-Sep-12 21:31N 43°04' E 008°34'714.4
2019-Sep-12 21:00N 42°59' E 008°26'3180.4
2019-Sep-12 21:00N 43°00' E 008°30'1020.8 040 / 181029.010.8 23.518.024.0
2019-Sep-12 20:31N 42°56' E 008°18'714.1
2019-Sep-12 20:01N 42°51' E 008°10'713.7
2019-Sep-12 19:30N 42°47' E 008°03'713.6
2019-Sep-12 19:00N 42°42' E 007°57'713.9
2019-Sep-12 18:30N 42°37' E 007°49'714.0
2019-Sep-12 18:00N 42°33' E 007°42'714.1
2019-Sep-12 17:30N 42°28' E 007°35'713.9
2019-Sep-12 17:00N 42°24' E 007°28'713.6
2019-Sep-12 16:30N 42°19' E 007°21'813.5
2019-Sep-12 15:55N 42°14' E 007°13'614.1
2019-Sep-12 15:30N 42°10' E 007°07'1214.0
2019-Sep-12 14:41N 42°03' E 006°55'214.0
2019-Sep-12 14:30N 42°01' E 006°52'917.4
2019-Sep-12 14:00N 41°56' E 006°43'919.0
2019-Sep-12 13:30N 41°49' E 006°34'918.9
2019-Sep-12 13:01N 41°43' E 006°24'918.9
2019-Sep-12 12:30N 41°37' E 006°15'918.9
2019-Sep-12 12:00N 41°31' E 006°05'918.8
2019-Sep-12 11:30N 41°25' E 005°55'918.8
2019-Sep-12 11:01N 41°18' E 005°47'3332.1
2019-Sep-12 10:00N 40°48' E 005°30'6514.7 360 / 211028.310.8 22.515.924.0
2019-Sep-12 05:33N 39°49' E 004°52'112.4
2019-Sep-12 05:29N 39°49' E 004°52'9811.5
2019-Sep-11 21:00N 38°48' E 003°12'6231.1 080 / 421020.510.8 24.520.726.0
2019-Sep-11 20:58N 38°52' E 003°07'31 9.4
2019-Sep-11 17:42N 39°14' E 002°39'314.4
2019-Sep-11 17:29N 39°17' E 002°39'714.6
2019-Sep-11 17:00N 39°24' E 002°39'714.9
2019-Sep-11 16:30N 39°31' E 002°39'2 3.4
2019-Sep-11 15:59N 39°33' E 002°38'0 0.0
2019-Sep-11 15:29N 39°33' E 002°38'0 0.0
2019-Sep-11 14:59N 39°33' E 002°38'0 0.0
2019-Sep-11 14:29N 39°33' E 002°38'0 0.0
2019-Sep-11 13:59N 39°33' E 002°38'0 0.0
2019-Sep-11 13:29N 39°33' E 002°38'0 0.0
2019-Sep-11 12:56N 39°33' E 002°38'0 0.0
2019-Sep-11 12:29N 39°33' E 002°38'0 0.0
2019-Sep-11 11:59N 39°33' E 002°38'0 0.0
2019-Sep-11 11:29N 39°33' E 002°38'0 0.0
2019-Sep-11 10:59N 39°33' E 002°38'0 0.0
2019-Sep-11 10:29N 39°33' E 002°38'0 0.0
2019-Sep-11 09:59N 39°33' E 002°38'0 0.0
2019-Sep-11 09:29N 39°33' E 002°38'0 0.0
2019-Sep-11 08:59N 39°33' E 002°38'0 0.0
2019-Sep-11 08:29N 39°33' E 002°38'0 0.0
2019-Sep-11 07:56N 39°33' E 002°38'0 0.0
2019-Sep-11 07:29N 39°33' E 002°38'0 0.0
2019-Sep-11 06:59N 39°33' E 002°38'0 0.0
2019-Sep-11 06:29N 39°33' E 002°38'0 0.0
2019-Sep-11 05:59N 39°33' E 002°38'0 0.3
2019-Sep-11 05:30N 39°33' E 002°38'1 2.2
2019-Sep-11 05:00N 39°32' E 002°39'5 9.1
2019-Sep-11 04:30N 39°28' E 002°36'714.1
2019-Sep-11 04:00N 39°22' E 002°33'815.0
2019-Sep-11 03:30N 39°15' E 002°29'714.9
2019-Sep-11 03:00N 39°08' E 002°25'29615.4
2019-Sep-10 07:42N 36°18' W 002°42'1115.2
2019-Sep-10 07:01N 36°17' W 002°55'6 3.0
2019-Sep-10 05:00N 36°12' W 003°00'16519.0 260 / 251015.810.8 22.520.225.0
2019-Sep-09 20:19N 35°56' W 006°23'514.8
2019-Sep-09 20:00N 35°57' W 006°28'  
Track history (hours):
 
Tides and Currents Weather Stations Pressure Air Temp Water Temp Dewpoint Dewpoint Depression Visibility Wind Speed Wind Dir Waves Ship Positions

Queen Victoria

Last reported at 2019-Sep-19 17:28 UTC. Time now 2019-Sep-19 18:48 UTC.
Position N 49°01' W 004°31'.

Length 294 m; draft 8 m.

Type: Ship. MMSI: 310624000.

Date/timePositionNaut miles runAvg speedWind from/ knotsBaromVisibWave heightAir tempDewpointWater temp
2019-Sep-19 17:28N 49°01' W 004°31'1021.1
2019-Sep-19 17:00N 48°55' W 004°42'1021.0
2019-Sep-19 16:30N 48°49' W 004°54'1121.0
2019-Sep-19 16:00N 48°42' W 005°07'1021.0
2019-Sep-19 15:30N 48°35' W 005°18'1020.3
2019-Sep-19 15:00N 48°27' W 005°28'1019.6
2019-Sep-19 14:30N 48°18' W 005°35'1019.9
2019-Sep-19 14:00N 48°10' W 005°43'1020.0
2019-Sep-19 13:30N 48°01' W 005°50'1320.0
2019-Sep-19 12:52N 47°50' W 005°59'719.7
2019-Sep-19 12:30N 47°44' W 006°05'3819.5
2019-Sep-19 10:33N 47°11' W 006°33'48618.3
2019-Sep-18 07:56N 39°27' W 009°51'919.3
2019-Sep-18 07:27N 39°18' W 009°51'919.1
2019-Sep-18 07:00N 39°09' W 009°51'918.9
2019-Sep-18 06:30N 38°60' W 009°51'918.8
2019-Sep-18 06:00N 38°50' W 009°51'1019.1
2019-Sep-18 05:30N 38°41' W 009°50'1019.5
2019-Sep-18 05:00N 38°31' W 009°48'1019.3
2019-Sep-18 04:30N 38°22' W 009°45'1019.4
2019-Sep-18 04:00N 38°12' W 009°42'1019.7
2019-Sep-18 03:30N 38°03' W 009°39'1019.8
2019-Sep-18 03:00N 37°53' W 009°36'1019.7
2019-Sep-18 02:30N 37°44' W 009°33'1019.3
2019-Sep-18 02:00N 37°34' W 009°30'1019.1
2019-Sep-18 01:30N 37°25' W 009°28'4617.9
2019-Sep-17 22:54N 36°43' W 009°02'718.8
2019-Sep-17 22:30N 36°41' W 008°53'1018.8
2019-Sep-17 22:00N 36°38' W 008°42'1518.9
2019-Sep-17 21:12N 36°34' W 008°24'2718.5
2019-Sep-17 19:46N 36°26' W 007°52'618.3
2019-Sep-17 19:26N 36°24' W 007°45'2218.5
2019-Sep-17 18:14N 36°16' W 007°19'418.6
2019-Sep-17 18:00N 36°15' W 007°14'5958.0
2019-Sep-17 17:00N 35°54' W 006°06'44510.1 280 / 81018.910.8 27.224.024.0
2019-Sep-15 21:00N 40°18' E 001°30'4218.9 090 / 201022.510.8 24.422.325.0
2019-Sep-15 18:47N 40°54' E 001°58'414.8
2019-Sep-15 18:30N 40°58' E 002°00'714.3
2019-Sep-15 18:00N 41°04' E 002°05'714.2
2019-Sep-15 17:31N 41°10' E 002°09'713.7
2019-Sep-15 17:01N 41°17' E 002°11'4 7.7
2019-Sep-15 16:30N 41°21' E 002°10'0 0.8
2019-Sep-15 15:58N 41°21' E 002°10'0 0.0
2019-Sep-15 15:28N 41°21' E 002°10'0 0.0
2019-Sep-15 14:58N 41°21' E 002°10'0 0.0
2019-Sep-15 14:28N 41°21' E 002°10'0 0.0
2019-Sep-15 13:58N 41°21' E 002°10'0 0.0
2019-Sep-15 13:28N 41°21' E 002°10'0 0.0
2019-Sep-15 12:58N 41°21' E 002°10'0 0.0
2019-Sep-15 12:28N 41°21' E 002°10'0 0.0
2019-Sep-15 11:58N 41°21' E 002°10'0 0.0
2019-Sep-15 11:28N 41°21' E 002°10'0 0.0
2019-Sep-15 10:58N 41°21' E 002°10'0 0.0
2019-Sep-15 10:28N 41°21' E 002°10'0 0.0
2019-Sep-15 09:58N 41°21' E 002°10'0 0.0
2019-Sep-15 09:28N 41°21' E 002°10'0 0.0
2019-Sep-15 08:58N 41°21' E 002°10'0 0.0
2019-Sep-15 08:28N 41°21' E 002°10'0 0.0
2019-Sep-15 07:58N 41°21' E 002°10'0 0.0
2019-Sep-15 07:28N 41°21' E 002°10'0 0.0
2019-Sep-15 06:55N 41°21' E 002°10'0 0.0
2019-Sep-15 06:30N 41°21' E 002°10'2 3.1
2019-Sep-15 06:00N 41°20' E 002°10'5 9.1
2019-Sep-15 05:31N 41°15' E 002°12'713.1
2019-Sep-15 05:01N 41°16' E 002°21'714.9
2019-Sep-15 04:30N 41°19' E 002°30'715.0
2019-Sep-15 04:00N 41°22' E 002°39'714.9
2019-Sep-15 03:31N 41°26' E 002°48'1019.2
2019-Sep-15 03:00N 41°30' E 002°59'1019.1
2019-Sep-15 02:30N 41°35' E 003°11'16319.0
2019-Sep-14 17:54N 42°51' E 006°25'919.4
2019-Sep-14 17:25N 42°57' E 006°35'919.5
2019-Sep-14 16:57N 43°05' E 006°42'919.4
2019-Sep-14 16:30N 43°12' E 006°48'1019.2
2019-Sep-14 16:00N 43°21' E 006°54'918.1
2019-Sep-14 15:30N 43°29' E 006°60'3 6.5
2019-Sep-14 15:00N 43°32' E 007°01'0 0.2
2019-Sep-14 14:29N 43°32' E 007°01'0 0.0
2019-Sep-14 13:59N 43°32' E 007°01'0 0.0
2019-Sep-14 13:29N 43°32' E 007°01'0 0.0
2019-Sep-14 12:59N 43°32' E 007°01'0 0.0
2019-Sep-14 12:29N 43°32' E 007°00'0 0.0
2019-Sep-14 11:59N 43°32' E 007°00'0 0.0
2019-Sep-14 11:29N 43°32' E 007°01'0 0.0
2019-Sep-14 10:59N 43°32' E 007°01'0 0.0
2019-Sep-14 10:26N 43°32' E 007°00'0 0.0
2019-Sep-14 09:59N 43°32' E 007°00'0 0.0
2019-Sep-14 09:29N 43°32' E 007°01'0 0.1
2019-Sep-14 08:59N 43°32' E 007°01'0 0.0
2019-Sep-14 08:29N 43°32' E 007°01'0 0.0
2019-Sep-14 07:59N 43°32' E 007°01'0 0.0
2019-Sep-14 07:29N 43°32' E 007°01'0 0.0
2019-Sep-14 06:59N 43°32' E 007°01'0 0.0
2019-Sep-14 06:29N 43°32' E 007°01'0 0.0
2019-Sep-14 05:59N 43°32' E 007°01'0 0.0
2019-Sep-14 05:29N 43°32' E 007°01'0 0.0
2019-Sep-14 04:59N 43°32' E 007°01'0 0.3
2019-Sep-14 04:30N 43°32' E 007°00'4 7.5
2019-Sep-14 04:00N 43°28' E 007°00'611.5
2019-Sep-14 03:30N 43°23' E 007°05'611.9
2019-Sep-14 03:00N 43°20' E 007°12'611.5
2019-Sep-14 02:30N 43°20' E 007°20'713.1
2019-Sep-14 02:00N 43°22' E 007°28'713.1
2019-Sep-14 01:30N 43°24' E 007°37'612.8
2019-Sep-14 01:00N 43°26' E 007°45'612.9
2019-Sep-14 00:30N 43°28' E 007°54'713.2
2019-Sep-14 00:00N 43°30' E 008°02'713.3
2019-Sep-13 23:30N 43°33' E 008°11'713.3
2019-Sep-13 23:00N 43°35' E 008°20'713.1
2019-Sep-13 22:30N 43°37' E 008°28'613.0
2019-Sep-13 22:00N 43°39' E 008°37'613.0
2019-Sep-13 21:30N 43°41' E 008°45'713.7
2019-Sep-13 21:00N 43°43' E 008°54'815.3
2019-Sep-13 20:30N 43°46' E 009°04'714.6
2019-Sep-13 20:00N 43°48' E 009°13'714.8
2019-Sep-13 19:30N 43°51' E 009°23'714.4
2019-Sep-13 19:00N 43°54' E 009°32'714.4
2019-Sep-13 18:30N 43°57' E 009°41'713.9
2019-Sep-13 18:00N 43°59' E 009°50'5 9.9
2019-Sep-13 17:31N 44°04' E 009°51'2 4.9
2019-Sep-13 17:01N 44°06' E 009°50'0 0.0
2019-Sep-13 16:28N 44°06' E 009°50'0 0.0
2019-Sep-13 15:58N 44°06' E 009°50'0 0.0
2019-Sep-13 15:28N 44°06' E 009°50'0 0.0
2019-Sep-13 14:58N 44°06' E 009°50'0 0.0
2019-Sep-13 14:28N 44°06' E 009°50'0 0.0
2019-Sep-13 13:58N 44°06' E 009°50'0 0.0
2019-Sep-13 13:25N 44°06' E 009°50'0 0.0
2019-Sep-13 12:58N 44°06' E 009°50'0 0.0
2019-Sep-13 12:28N 44°06' E 009°50'0 0.0
2019-Sep-13 11:58N 44°06' E 009°50'0 0.0
2019-Sep-13 11:28N 44°06' E 009°50'0 0.0
2019-Sep-13 10:58N 44°06' E 009°50'0 0.0
2019-Sep-13 10:28N 44°06' E 009°50'0 0.0
2019-Sep-13 09:58N 44°06' E 009°50'0 0.0
2019-Sep-13 09:25N 44°06' E 009°50'0 0.0
2019-Sep-13 08:58N 44°06' E 009°50'0 0.0
2019-Sep-13 08:28N 44°06' E 009°50'0 0.0
2019-Sep-13 07:58N 44°06' E 009°50'0 0.0
2019-Sep-13 07:28N 44°06' E 009°50'0 0.0
2019-Sep-13 06:58N 44°06' E 009°50'0 0.0
2019-Sep-13 06:25N 44°06' E 009°50'0 0.0
2019-Sep-13 05:58N 44°06' E 009°50'0 0.0
2019-Sep-13 05:28N 44°06' E 009°50'0 0.0
2019-Sep-13 04:58N 44°06' E 009°50'0 0.7
2019-Sep-13 04:30N 44°06' E 009°50'1 2.3
2019-Sep-13 04:00N 44°05' E 009°51'3 5.5
2019-Sep-13 03:30N 44°03' E 009°53'510.2
2019-Sep-13 03:01N 43°58' E 009°56'714.3
2019-Sep-13 02:31N 43°53' E 009°50'1514.9
2019-Sep-13 01:31N 43°43' E 009°34'714.8
2019-Sep-13 01:01N 43°38' E 009°26'715.0
2019-Sep-13 00:31N 43°33' E 009°18'714.8
2019-Sep-13 00:01N 43°28' E 009°11'714.7
2019-Sep-12 23:31N 43°24' E 009°03'714.6
2019-Sep-12 23:01N 43°19' E 008°55'714.5
2019-Sep-12 22:31N 43°14' E 008°48'714.5
2019-Sep-12 22:01N 43°09' E 008°41'714.4
2019-Sep-12 21:31N 43°04' E 008°34'714.4
2019-Sep-12 21:00N 42°59' E 008°26'3180.4
2019-Sep-12 21:00N 43°00' E 008°30'1020.8 040 / 181029.010.8 23.518.024.0
2019-Sep-12 20:31N 42°56' E 008°18'714.1
2019-Sep-12 20:01N 42°51' E 008°10'713.7
2019-Sep-12 19:30N 42°47' E 008°03'713.6
2019-Sep-12 19:00N 42°42' E 007°57'713.9
2019-Sep-12 18:30N 42°37' E 007°49'714.0
2019-Sep-12 18:00N 42°33' E 007°42'714.1
2019-Sep-12 17:30N 42°28' E 007°35'713.9
2019-Sep-12 17:00N 42°24' E 007°28'713.6
2019-Sep-12 16:30N 42°19' E 007°21'813.5
2019-Sep-12 15:55N 42°14' E 007°13'614.1
2019-Sep-12 15:30N 42°10' E 007°07'1214.0
2019-Sep-12 14:41N 42°03' E 006°55'214.0
2019-Sep-12 14:30N 42°01' E 006°52'917.4
2019-Sep-12 14:00N 41°56' E 006°43'919.0
2019-Sep-12 13:30N 41°49' E 006°34'918.9
2019-Sep-12 13:01N 41°43' E 006°24'918.9
2019-Sep-12 12:30N 41°37' E 006°15'918.9
2019-Sep-12 12:00N 41°31' E 006°05'918.8
2019-Sep-12 11:30N 41°25' E 005°55'918.8
2019-Sep-12 11:01N 41°18' E 005°47'3332.1
2019-Sep-12 10:00N 40°48' E 005°30'6514.7 360 / 211028.310.8 22.515.924.0
2019-Sep-12 05:33N 39°49' E 004°52'112.4
2019-Sep-12 05:29N 39°49' E 004°52'9811.5
2019-Sep-11 21:00N 38°48' E 003°12'6231.1 080 / 421020.510.8 24.520.726.0
2019-Sep-11 20:58N 38°52' E 003°07'31 9.4
2019-Sep-11 17:42N 39°14' E 002°39'314.4
2019-Sep-11 17:29N 39°17' E 002°39'714.6
2019-Sep-11 17:00N 39°24' E 002°39'714.9
2019-Sep-11 16:30N 39°31' E 002°39'2 3.4
2019-Sep-11 15:59N 39°33' E 002°38'0 0.0
2019-Sep-11 15:29N 39°33' E 002°38'0 0.0
2019-Sep-11 14:59N 39°33' E 002°38'0 0.0
2019-Sep-11 14:29N 39°33' E 002°38'0 0.0
2019-Sep-11 13:59N 39°33' E 002°38'0 0.0
2019-Sep-11 13:29N 39°33' E 002°38'0 0.0
2019-Sep-11 12:56N 39°33' E 002°38'0 0.0
2019-Sep-11 12:29N 39°33' E 002°38'0 0.0
2019-Sep-11 11:59N 39°33' E 002°38'0 0.0
2019-Sep-11 11:29N 39°33' E 002°38'0 0.0
2019-Sep-11 10:59N 39°33' E 002°38'0 0.0
2019-Sep-11 10:29N 39°33' E 002°38'0 0.0
2019-Sep-11 09:59N 39°33' E 002°38'0 0.0
2019-Sep-11 09:29N 39°33' E 002°38'0 0.0
2019-Sep-11 08:59N 39°33' E 002°38'0 0.0
2019-Sep-11 08:29N 39°33' E 002°38'0 0.0
2019-Sep-11 07:56N 39°33' E 002°38'0 0.0
2019-Sep-11 07:29N 39°33' E 002°38'0 0.0
2019-Sep-11 06:59N 39°33' E 002°38'0 0.0
2019-Sep-11 06:29N 39°33' E 002°38'0 0.0
2019-Sep-11 05:59N 39°33' E 002°38'0 0.3
2019-Sep-11 05:30N 39°33' E 002°38'1 2.2
2019-Sep-11 05:00N 39°32' E 002°39'5 9.1
2019-Sep-11 04:30N 39°28' E 002°36'714.1
2019-Sep-11 04:00N 39°22' E 002°33'815.0
2019-Sep-11 03:30N 39°15' E 002°29'714.9
2019-Sep-11 03:00N 39°08' E 002°25'29615.4
2019-Sep-10 07:42N 36°18' W 002°42'1115.2
2019-Sep-10 07:01N 36°17' W 002°55'6 3.0
2019-Sep-10 05:00N 36°12' W 003°00'16519.0 260 / 251015.810.8 22.520.225.0
2019-Sep-09 20:19N 35°56' W 006°23'514.8
2019-Sep-09 20:00N 35°57' W 006°28'  

Dump ship's entire track history